Time;durP1;ratioP1;P1;durP2;ratioP2;P2;SDS_P1;SDS_P2;PMS_P1;PMS_P2;Temp;Humidity;BMP_temperature;BMP_pressure;BME280_temperature;BME280_humidity;BME280_pressure;Samples;Min_cycle;Max_cycle;Signal;HPM_P1;HPM_P2
2022/05/13 00:00:58;;;;;;;5.27;3.10;;;;;;;;;;5091499;28;20394;-55
2022/05/13 00:03:24;;;;;;;8.50;3.70;;;;;;;;;;5092024;28;20503;-55
2022/05/13 00:05:50;;;;;;;6.80;3.10;;;;;;;;;;5091787;28;20433;-55
2022/05/13 00:08:17;;;;;;;5.07;2.97;;;;;;;;;;5090063;28;20400;-52
2022/05/13 00:10:43;;;;;;;6.57;3.05;;;;;;;;;;5091820;28;20401;-54
2022/05/13 00:13:09;;;;;;;5.18;2.95;;;;;;;;;;5091691;28;20900;-54
2022/05/13 00:15:35;;;;;;;5.20;3.10;;;;;;;;;;5091689;28;20398;-54
2022/05/13 00:18:03;;;;;;;5.70;2.80;;;;;;;;;;5091825;28;20398;-54
2022/05/13 00:20:29;;;;;;;5.82;2.92;;;;;;;;;;5091810;28;20413;-54
2022/05/13 00:22:56;;;;;;;5.07;3.10;;;;;;;;;;5091598;28;20416;-55
2022/05/13 00:25:23;;;;;;;6.47;2.80;;;;;;;;;;5091667;28;20412;-52
2022/05/13 00:27:49;;;;;;;3.28;2.75;;;;;;;;;;5091286;28;20429;-54
2022/05/13 00:30:16;;;;;;;5.03;2.70;;;;;;;;;;5091399;28;20398;-52
2022/05/13 00:32:43;;;;;;;7.88;3.15;;;;;;;;;;5091568;28;20406;-54
2022/05/13 00:35:11;;;;;;;7.68;3.40;;;;;;;;;;5091326;28;20406;-53
2022/05/13 00:37:37;;;;;;;6.28;3.00;;;;;;;;;;5091556;28;20459;-53
2022/05/13 00:40:03;;;;;;;6.53;3.73;;;;;;;;;;5091443;28;20468;-53
2022/05/13 00:42:30;;;;;;;5.88;3.38;;;;;;;;;;5091640;28;20461;-53
2022/05/13 00:44:57;;;;;;;5.07;3.60;;;;;;;;;;5091407;28;20409;-53
2022/05/13 00:47:24;;;;;;;6.30;3.30;;;;;;;;;;5091446;28;20893;-52
2022/05/13 00:49:51;;;;;;;5.40;3.20;;;;;;;;;;5091013;28;20429;-53
2022/05/13 00:52:19;;;;;;;6.22;3.30;;;;;;;;;;5091333;28;20390;-52
2022/05/13 00:54:45;;;;;;;6.50;3.00;;;;;;;;;;5090949;28;20496;-53
2022/05/13 00:57:12;;;;;;;6.05;3.80;;;;;;;;;;5090720;28;20441;-51
2022/05/13 00:59:39;;;;;;;6.00;3.42;;;;;;;;;;5091036;28;20386;-52
2022/05/13 01:02:05;;;;;;;6.60;3.85;;;;;;;;;;5090525;28;20422;-52
2022/05/13 01:04:31;;;;;;;5.32;3.40;;;;;;;;;;5090902;28;20432;-57
2022/05/13 01:07:06;;;;;;;5.85;3.50;;;;;;;;;;5090685;28;20401;-53
2022/05/13 01:09:34;;;;;;;6.03;3.40;;;;;;;;;;5091107;28;20437;-52
2022/05/13 01:12:03;;;;;;;6.45;3.70;;;;;;;;;;5090873;28;20398;-52
2022/05/13 01:14:31;;;;;;;7.35;3.80;;;;;;;;;;5090999;28;20919;-52
2022/05/13 01:19:58;;;;;;;6.35;3.60;;;;;;;;;;5090742;28;20907;-51
2022/05/13 01:22:25;;;;;;;5.65;3.30;;;;;;;;;;5090867;28;20409;-51
2022/05/13 01:24:51;;;;;;;4.50;2.83;;;;;;;;;;5088654;28;20413;-52
2022/05/13 01:27:17;;;;;;;6.50;3.13;;;;;;;;;;5090410;28;20394;-51
2022/05/13 01:29:43;;;;;;;4.90;3.22;;;;;;;;;;5090658;28;20953;-52
2022/05/13 01:32:09;;;;;;;4.35;3.10;;;;;;;;;;5090445;28;20734;-52
2022/05/13 01:34:35;;;;;;;4.22;2.92;;;;;;;;;;5090520;28;20417;-53
2022/05/13 01:37:01;;;;;;;6.37;3.20;;;;;;;;;;5090481;28;20872;-53
2022/05/13 01:39:28;;;;;;;4.57;3.00;;;;;;;;;;5090594;28;20406;-52
2022/05/13 01:41:54;;;;;;;6.50;3.30;;;;;;;;;;5090356;28;20410;-53
2022/05/13 01:44:20;;;;;;;5.70;3.70;;;;;;;;;;5090427;28;20398;-53
2022/05/13 01:46:46;;;;;;;5.07;3.20;;;;;;;;;;5090451;28;20397;-53
2022/05/13 01:49:13;;;;;;;3.65;3.10;;;;;;;;;;5090260;28;20394;-52
2022/05/13 01:51:39;;;;;;;5.37;3.60;;;;;;;;;;5090397;28;20512;-53
2022/05/13 01:54:05;;;;;;;6.70;3.60;;;;;;;;;;5090148;28;20496;-53
2022/05/13 01:56:32;;;;;;;7.55;3.60;;;;;;;;;;5090405;28;20402;-52
2022/05/13 01:58:58;;;;;;;6.40;3.58;;;;;;;;;;5090283;28;20442;-52
2022/05/13 02:01:24;;;;;;;4.65;3.40;;;;;;;;;;5090298;28;20433;-52
2022/05/13 02:03:50;;;;;;;5.95;3.55;;;;;;;;;;5090036;28;20417;-52
2022/05/13 02:06:19;;;;;;;7.88;4.00;;;;;;;;;;5090143;28;20398;-51
2022/05/13 02:08:46;;;;;;;6.63;3.63;;;;;;;;;;5093647;28;20437;-52
2022/05/13 02:11:12;;;;;;;5.60;3.42;;;;;;;;;;5093794;28;20427;-51
2022/05/13 02:13:39;;;;;;;6.03;3.50;;;;;;;;;;5094110;28;20382;-51
2022/05/13 02:16:06;;;;;;;5.40;3.60;;;;;;;;;;5093835;28;20535;-52
2022/05/13 02:18:32;;;;;;;5.82;3.65;;;;;;;;;;5093781;28;20394;-52
2022/05/13 02:20:58;;;;;;;5.45;3.63;;;;;;;;;;5093659;28;20447;-51
2022/05/13 02:23:24;;;;;;;4.55;3.70;;;;;;;;;;5093622;28;20448;-51
2022/05/13 02:25:51;;;;;;;5.22;3.30;;;;;;;;;;5093094;28;20768;-51
2022/05/13 02:28:17;;;;;;;6.13;3.60;;;;;;;;;;5093563;28;20421;-51
2022/05/13 02:30:45;;;;;;;6.40;3.60;;;;;;;;;;5093703;28;20410;-51
2022/05/13 02:33:11;;;;;;;5.53;3.43;;;;;;;;;;5093476;28;20422;-51
2022/05/13 02:35:37;;;;;;;6.90;3.58;;;;;;;;;;5093410;28;20444;-51
2022/05/13 02:38:03;;;;;;;5.28;3.60;;;;;;;;;;5093386;28;20402;-51
2022/05/13 02:43:13;;;;;;;6.13;3.60;;;;;;;;;;5093437;28;20460;-51
2022/05/13 02:45:40;;;;;;;5.32;3.83;;;;;;;;;;5093323;28;20398;-51
2022/05/13 02:48:08;;;;;;;7.72;4.15;;;;;;;;;;5093215;28;20497;-51
2022/05/13 02:50:34;;;;;;;6.03;3.90;;;;;;;;;;5093247;28;20888;-52
2022/05/13 02:52:59;;;;;;;7.78;4.20;;;;;;;;;;5093250;28;20410;-51
2022/05/13 02:55:25;;;;;;;6.28;3.95;;;;;;;;;;5093297;28;20499;-51
2022/05/13 02:57:51;;;;;;;6.22;4.13;;;;;;;;;;5093010;28;20390;-52
2022/05/13 03:00:17;;;;;;;7.05;3.97;;;;;;;;;;5093072;28;20760;-52
2022/05/13 03:02:44;;;;;;;6.47;4.22;;;;;;;;;;5093022;28;20421;-52
2022/05/13 03:05:11;;;;;;;6.55;4.30;;;;;;;;;;5092775;28;20394;-52
2022/05/13 03:07:37;;;;;;;6.95;4.38;;;;;;;;;;5092883;28;20417;-52
2022/05/13 03:10:05;;;;;;;5.25;4.00;;;;;;;;;;5092787;28;20406;-52
2022/05/13 03:12:31;;;;;;;5.63;4.20;;;;;;;;;;5092882;28;20405;-51
2022/05/13 03:14:57;;;;;;;5.28;3.95;;;;;;;;;;5092650;28;20426;-51
2022/05/13 03:17:23;;;;;;;5.45;4.18;;;;;;;;;;5092196;28;20817;-51
2022/05/13 03:19:49;;;;;;;5.68;3.80;;;;;;;;;;5092268;28;20406;-51
2022/05/13 03:22:16;;;;;;;5.22;3.90;;;;;;;;;;5092480;28;20410;-51
2022/05/13 03:24:42;;;;;;;5.30;3.60;;;;;;;;;;5092490;28;20884;-51
2022/05/13 03:27:08;;;;;;;4.55;3.90;;;;;;;;;;5092346;28;20394;-51
2022/05/13 03:29:35;;;;;;;5.55;3.80;;;;;;;;;;5092406;28;20764;-51
2022/05/13 03:32:02;;;;;;;5.25;3.88;;;;;;;;;;5092239;28;20793;-51
2022/05/13 03:34:28;;;;;;;6.20;4.10;;;;;;;;;;5092327;28;20947;-50
2022/05/13 03:36:54;;;;;;;6.93;4.00;;;;;;;;;;5092259;28;20394;-51
2022/05/13 03:39:21;;;;;;;5.78;4.22;;;;;;;;;;5092374;28;20398;-50
2022/05/13 03:41:47;;;;;;;5.80;3.92;;;;;;;;;;5092107;28;20402;-51
2022/05/13 03:44:13;;;;;;;5.93;4.32;;;;;;;;;;5092084;28;20414;-50
2022/05/13 03:46:39;;;;;;;6.82;4.50;;;;;;;;;;5092355;28;20394;-50
2022/05/13 03:49:05;;;;;;;6.25;4.28;;;;;;;;;;5091793;28;20417;-51
2022/05/13 03:51:32;;;;;;;6.45;4.47;;;;;;;;;;5092033;28;20896;-51
2022/05/13 03:53:58;;;;;;;5.70;4.40;;;;;;;;;;5092003;28;20753;-51
2022/05/13 03:56:25;;;;;;;6.30;4.40;;;;;;;;;;5091740;28;20398;-51
2022/05/13 03:58:51;;;;;;;4.93;4.30;;;;;;;;;;5091744;28;20768;-51
2022/05/13 04:01:17;;;;;;;5.20;4.00;;;;;;;;;;5091819;28;20670;-51
2022/05/13 04:03:43;;;;;;;4.65;4.10;;;;;;;;;;5091609;28;20889;-51
2022/05/13 04:08:57;;;;;;;5.45;4.30;;;;;;;;;;5091482;28;20394;-50
2022/05/13 04:11:23;;;;;;;7.30;4.43;;;;;;;;;;5091469;28;20872;-51
2022/05/13 04:16:35;;;;;;;5.75;4.50;;;;;;;;;;5091296;28;20405;-50
2022/05/13 04:19:03;;;;;;;6.30;4.45;;;;;;;;;;5091251;28;20934;-50
2022/05/13 04:21:31;;;;;;;6.15;4.93;;;;;;;;;;5091545;28;20402;-50
2022/05/13 04:23:58;;;;;;;6.28;4.55;;;;;;;;;;5091122;28;20501;-51
2022/05/13 04:26:24;;;;;;;5.80;4.32;;;;;;;;;;5091391;28;20402;-51
2022/05/13 04:28:52;;;;;;;5.82;4.60;;;;;;;;;;5091191;28;20400;-51
2022/05/13 04:31:20;;;;;;;5.43;4.38;;;;;;;;;;5090551;28;20402;-51
2022/05/13 04:33:47;;;;;;;4.43;3.72;;;;;;;;;;5091228;28;20465;-51
2022/05/13 04:36:13;;;;;;;6.00;4.40;;;;;;;;;;5091335;28;20402;-50
2022/05/13 04:38:39;;;;;;;4.93;4.22;;;;;;;;;;5091098;28;20409;-50
2022/05/13 04:43:52;;;;;;;5.25;3.80;;;;;;;;;;5090723;28;20416;-51
2022/05/13 04:46:18;;;;;;;6.25;4.10;;;;;;;;;;5090828;28;20906;-51
2022/05/13 04:48:46;;;;;;;5.05;3.88;;;;;;;;;;5091070;28;20432;-50
2022/05/13 04:51:12;;;;;;;5.67;3.93;;;;;;;;;;5090769;28;20926;-51
2022/05/13 04:53:39;;;;;;;4.82;3.80;;;;;;;;;;5090855;28;20422;-50
2022/05/13 04:56:06;;;;;;;6.40;4.13;;;;;;;;;;5090680;28;20788;-51
2022/05/13 04:58:33;;;;;;;6.20;4.20;;;;;;;;;;5091124;28;20398;-50
2022/05/13 05:01:01;;;;;;;8.15;4.07;;;;;;;;;;5090718;28;20803;-50
2022/05/13 05:03:29;;;;;;;5.88;4.20;;;;;;;;;;5090739;28;20428;-51
2022/05/13 05:05:55;;;;;;;4.72;3.97;;;;;;;;;;5090550;28;20926;-51
2022/05/13 05:08:21;;;;;;;4.80;4.03;;;;;;;;;;5090754;28;20807;-51
2022/05/13 05:10:47;;;;;;;4.68;4.03;;;;;;;;;;5090951;28;20481;-53
2022/05/13 05:13:17;;;;;;;4.82;3.58;;;;;;;;;;5090524;28;20473;-53
2022/05/13 05:15:45;;;;;;;5.07;3.57;;;;;;;;;;5090334;28;20825;-53
2022/05/13 05:18:12;;;;;;;6.20;3.47;;;;;;;;;;5090097;28;20397;-51
2022/05/13 05:20:38;;;;;;;5.50;3.50;;;;;;;;;;5089843;28;20398;-50
2022/05/13 05:23:05;;;;;;;5.57;3.53;;;;;;;;;;5090077;28;20420;-51
2022/05/13 05:25:31;;;;;;;5.63;3.50;;;;;;;;;;5090621;28;20400;-51
2022/05/13 05:27:57;;;;;;;5.00;3.50;;;;;;;;;;5090487;28;20398;-51
2022/05/13 05:30:24;;;;;;;6.35;3.60;;;;;;;;;;5090135;28;20887;-51
2022/05/13 05:32:50;;;;;;;6.60;3.50;;;;;;;;;;5090195;28;20876;-51
2022/05/13 05:35:18;;;;;;;5.75;3.45;;;;;;;;;;5090413;28;20394;-51
2022/05/13 05:37:44;;;;;;;5.38;3.38;;;;;;;;;;5090472;28;20397;-51
2022/05/13 05:40:11;;;;;;;5.97;3.63;;;;;;;;;;5090373;28;20398;-51
2022/05/13 05:42:37;;;;;;;6.03;3.30;;;;;;;;;;5091989;28;21008;-51
2022/05/13 05:45:03;;;;;;;4.68;3.00;;;;;;;;;;5094398;28;20394;-51
2022/05/13 05:47:29;;;;;;;5.70;2.55;;;;;;;;;;5094488;28;20413;-51
2022/05/13 05:49:55;;;;;;;5.63;2.75;;;;;;;;;;5094330;28;20404;-51
2022/05/13 05:52:22;;;;;;;5.10;2.70;;;;;;;;;;5094378;28;20390;-51
2022/05/13 05:57:33;;;;;;;4.82;2.45;;;;;;;;;;5094274;28;20385;-51
2022/05/13 06:00:00;;;;;;;6.50;2.50;;;;;;;;;;5094208;28;20406;-51
2022/05/13 06:02:26;;;;;;;4.68;2.70;;;;;;;;;;5093789;28;20945;-51
2022/05/13 06:04:52;;;;;;;6.68;2.78;;;;;;;;;;5094043;28;20903;-51
2022/05/13 06:07:18;;;;;;;5.82;2.72;;;;;;;;;;5093899;28;20394;-51
2022/05/13 06:09:46;;;;;;;5.95;2.67;;;;;;;;;;5094131;28;20769;-51
2022/05/13 06:12:13;;;;;;;5.07;2.53;;;;;;;;;;5093824;28;20477;-51
2022/05/13 06:14:39;;;;;;;5.90;2.60;;;;;;;;;;5094009;28;20877;-51
2022/05/13 06:17:06;;;;;;;4.95;2.40;;;;;;;;;;5093574;28;20742;-50
2022/05/13 06:19:32;;;;;;;8.07;2.53;;;;;;;;;;5093701;28;20849;-50
2022/05/13 06:21:58;;;;;;;9.10;2.90;;;;;;;;;;5094994;28;20203;-50
2022/05/13 06:24:24;;;;;;;4.93;2.37;;;;;;;;;;5094748;28;20211;-51
2022/05/13 06:26:51;;;;;;;5.07;2.67;;;;;;;;;;5094786;28;20293;-53
2022/05/13 06:29:18;;;;;;;5.63;2.80;;;;;;;;;;5094687;28;20206;-51
2022/05/13 06:31:44;;;;;;;5.70;2.40;;;;;;;;;;5094652;28;20199;-52
2022/05/13 06:34:10;;;;;;;8.33;2.77;;;;;;;;;;5094502;28;20249;-51
2022/05/13 06:36:36;;;;;;;6.27;2.90;;;;;;;;;;5094736;28;20206;-50
2022/05/13 06:39:03;;;;;;;5.80;2.50;;;;;;;;;;5094635;28;20187;-51
2022/05/13 06:41:29;;;;;;;7.10;2.80;;;;;;;;;;5093561;28;20394;-51
2022/05/13 06:43:56;;;;;;;6.90;3.08;;;;;;;;;;5093230;28;20445;-51
2022/05/13 06:46:22;;;;;;;8.80;2.97;;;;;;;;;;5093167;28;20772;-51
2022/05/13 06:48:48;;;;;;;6.50;2.78;;;;;;;;;;5093134;28;20397;-51
2022/05/13 06:51:15;;;;;;;6.80;2.90;;;;;;;;;;5093274;28;20426;-51
2022/05/13 06:53:41;;;;;;;7.27;2.80;;;;;;;;;;5093768;28;20443;-51
2022/05/13 06:56:07;;;;;;;5.03;2.90;;;;;;;;;;5092827;28;20496;-51
2022/05/13 06:58:33;;;;;;;7.00;2.80;;;;;;;;;;5093057;28;20439;-51
2022/05/13 07:01:00;;;;;;;10.00;3.55;;;;;;;;;;5093042;28;20405;-51
2022/05/13 07:03:26;;;;;;;8.82;3.30;;;;;;;;;;5092749;28;20422;-51
2022/05/13 07:05:52;;;;;;;7.38;3.15;;;;;;;;;;5093017;28;20402;-51
2022/05/13 07:08:18;;;;;;;5.78;2.70;;;;;;;;;;5092910;28;20424;-51
2022/05/13 07:10:44;;;;;;;6.05;2.85;;;;;;;;;;5092965;28;20402;-51
2022/05/13 07:13:12;;;;;;;7.23;2.90;;;;;;;;;;5092545;28;20432;-51
2022/05/13 07:15:38;;;;;;;7.25;2.80;;;;;;;;;;5092634;28;20834;-50
2022/05/13 07:18:06;;;;;;;7.93;3.17;;;;;;;;;;5092487;28;20402;-51
2022/05/13 07:20:32;;;;;;;7.63;2.97;;;;;;;;;;5092644;28;20411;-51
2022/05/13 07:22:58;;;;;;;6.67;2.57;;;;;;;;;;5093756;28;20223;-51
2022/05/13 07:25:24;;;;;;;5.63;2.80;;;;;;;;;;5092124;28;20452;-51
2022/05/13 07:27:50;;;;;;;8.70;3.10;;;;;;;;;;5092435;28;20398;-51
2022/05/13 07:30:17;;;;;;;9.52;3.15;;;;;;;;;;5092036;28;20493;-52
2022/05/13 07:32:43;;;;;;;8.00;2.97;;;;;;;;;;5092310;28;20486;-51
2022/05/13 07:35:10;;;;;;;5.88;2.92;;;;;;;;;;5092044;28;20394;-52
2022/05/13 07:37:37;;;;;;;6.63;2.83;;;;;;;;;;5092062;28;20398;-51
2022/05/13 07:42:47;;;;;;;9.30;3.25;;;;;;;;;;5092290;28;20420;-52
2022/05/13 07:45:13;;;;;;;9.23;3.13;;;;;;;;;;5092207;28;20390;-52
2022/05/13 07:47:42;;;;;;;7.30;3.40;;;;;;;;;;5092076;28;20435;-51
2022/05/13 07:50:10;;;;;;;8.35;3.47;;;;;;;;;;5091952;28;20475;-53
2022/05/13 07:52:37;;;;;;;6.50;3.07;;;;;;;;;;5091812;28;20749;-53
2022/05/13 07:55:04;;;;;;;10.07;3.63;;;;;;;;;;5091480;28;20946;-53
2022/05/13 07:57:30;;;;;;;9.32;3.40;;;;;;;;;;5091892;28;20401;-50
2022/05/13 08:02:41;;;;;;;9.07;3.58;;;;;;;;;;5091553;28;20462;-53
2022/05/13 08:05:09;;;;;;;9.85;3.65;;;;;;;;;;5090485;28;20404;-50
2022/05/13 08:07:35;;;;;;;9.00;2.83;;;;;;;;;;5091655;28;20811;-51
2022/05/13 08:10:03;;;;;;;6.82;3.40;;;;;;;;;;5091659;28;20425;-53
2022/05/13 08:12:29;;;;;;;10.52;3.90;;;;;;;;;;5091866;28;20821;-52
2022/05/13 08:14:55;;;;;;;8.90;3.00;;;;;;;;;;5092759;28;20202;-52
2022/05/13 08:17:21;;;;;;;9.17;3.40;;;;;;;;;;5085482;28;20300;-53
2022/05/13 08:19:47;;;;;;;11.98;4.03;;;;;;;;;;5091167;28;20409;-52
2022/05/13 08:22:13;;;;;;;8.67;3.57;;;;;;;;;;5091003;28;20412;-53
2022/05/13 08:24:39;;;;;;;6.87;3.10;;;;;;;;;;5092866;28;20225;-53
2022/05/13 08:27:06;;;;;;;7.67;3.30;;;;;;;;;;5092658;28;20614;-53
2022/05/13 08:29:32;;;;;;;7.28;3.40;;;;;;;;;;5091308;28;20410;-53
2022/05/13 08:31:58;;;;;;;8.55;3.40;;;;;;;;;;5091095;28;20801;-53
2022/05/13 08:34:24;;;;;;;7.40;3.45;;;;;;;;;;5090978;28;20444;-54
2022/05/13 08:36:50;;;;;;;10.07;3.80;;;;;;;;;;5091175;28;20430;-54
2022/05/13 08:39:16;;;;;;;7.63;3.30;;;;;;;;;;5090973;28;20404;-53
2022/05/13 08:41:49;;;;;;;11.32;3.70;;;;;;;;;;5090992;28;20481;-54
2022/05/13 08:44:16;;;;;;;10.20;4.00;;;;;;;;;;5090461;28;20491;-54
2022/05/13 08:46:56;;;;;;;10.87;3.53;;;;;;;;;;5090099;28;20545;-53
2022/05/13 08:49:24;;;;;;;10.27;3.67;;;;;;;;;;5090058;28;20210;-54
2022/05/13 08:52:02;;;;;;;10.20;4.05;;;;;;;;;;5090912;28;20447;-53
2022/05/13 08:54:31;;;;;;;8.40;3.42;;;;;;;;;;5091050;28;20522;-53
2022/05/13 08:56:59;;;;;;;7.43;3.33;;;;;;;;;;5090842;28;20438;-54
2022/05/13 08:59:28;;;;;;;5.83;3.10;;;;;;;;;;5091986;28;20203;-53
2022/05/13 09:01:55;;;;;;;6.83;3.37;;;;;;;;;;5092037;28;20618;-53
2022/05/13 09:04:25;;;;;;;9.43;3.33;;;;;;;;;;5090582;28;20426;-53
2022/05/13 09:06:53;;;;;;;6.70;3.30;;;;;;;;;;5090820;28;20494;-53
2022/05/13 09:09:19;;;;;;;5.97;3.10;;;;;;;;;;5090498;28;20417;-54
2022/05/13 09:11:48;;;;;;;8.57;3.20;;;;;;;;;;5091797;28;20568;-54
2022/05/13 09:14:25;;;;;;;6.30;3.23;;;;;;;;;;5091843;28;20247;-54
2022/05/13 09:17:00;;;;;;;9.27;2.90;;;;;;;;;;5091450;28;20767;-54
2022/05/13 09:19:29;;;;;;;7.65;3.05;;;;;;;;;;5090450;28;20467;-54
2022/05/13 09:21:55;;;;;;;6.13;2.97;;;;;;;;;;5090373;28;20408;-54
2022/05/13 09:24:21;;;;;;;10.63;3.13;;;;;;;;;;5091299;28;20226;-54
2022/05/13 09:26:47;;;;;;;9.73;3.27;;;;;;;;;;5091839;28;20206;-53
2022/05/13 09:29:14;;;;;;;9.53;3.43;;;;;;;;;;5091440;28;20217;-54
2022/05/13 09:31:42;;;;;;;8.90;2.77;;;;;;;;;;5092029;28;20193;-54
2022/05/13 09:34:29;;;;;;;8.30;2.80;;;;;;;;;;5091319;28;20780;-53
2022/05/13 09:37:02;;;;;;;7.10;3.13;;;;;;;;;;5091734;28;20206;-54
2022/05/13 09:39:33;;;;;;;7.23;3.03;;;;;;;;;;5091698;28;20209;-53
2022/05/13 09:42:17;;;;;;;8.82;3.30;;;;;;;;;;5090588;28;20500;-54
2022/05/13 09:44:43;;;;;;;5.20;2.50;;;;;;;;;;5091719;28;20240;-53
2022/05/13 09:47:10;;;;;;;7.60;2.30;;;;;;;;;;5091480;28;20206;-53
2022/05/13 09:49:40;;;;;;;5.43;2.57;;;;;;;;;;5091655;28;20615;-53
2022/05/13 09:52:08;;;;;;;5.10;2.50;;;;;;;;;;5091460;28;20292;-53
2022/05/13 09:54:35;;;;;;;6.13;2.40;;;;;;;;;;5091590;28;20221;-54
2022/05/13 09:57:05;;;;;;;6.90;2.23;;;;;;;;;;5091479;28;20218;-53
2022/05/13 09:59:35;;;;;;;6.63;2.23;;;;;;;;;;5091461;28;20284;-53
2022/05/13 10:02:14;;;;;;;4.73;2.33;;;;;;;;;;5091329;28;20730;-53
2022/05/13 10:04:41;;;;;;;4.17;2.17;;;;;;;;;;5091408;28;20289;-53
2022/05/13 10:07:08;;;;;;;7.70;2.17;;;;;;;;;;5091650;28;20571;-53
2022/05/13 10:15:17;;;;;;;4.30;2.13;;;;;;;;;;5091201;28;20197;-53
2022/05/13 10:17:45;;;;;;;5.43;2.20;;;;;;;;;;5089770;28;20413;-53
2022/05/13 10:20:17;;;;;;;5.00;1.80;;;;;;;;;;5091146;28;20205;-53
2022/05/13 10:22:45;;;;;;;4.80;1.60;;;;;;;;;;5091188;28;20316;-53
2022/05/13 10:25:14;;;;;;;3.77;1.77;;;;;;;;;;5090895;28;20220;-53
2022/05/13 10:27:41;;;;;;;3.75;2.00;;;;;;;;;;5089934;28;20414;-53
2022/05/13 10:30:08;;;;;;;5.05;2.05;;;;;;;;;;5093243;28;20488;-53
2022/05/13 10:32:40;;;;;;;4.82;2.17;;;;;;;;;;5093396;28;20398;-53
2022/05/13 10:35:09;;;;;;;4.70;2.05;;;;;;;;;;5093219;28;20398;-53
2022/05/13 10:37:40;;;;;;;6.95;2.40;;;;;;;;;;5093248;28;20410;-53
2022/05/13 10:40:09;;;;;;;5.07;2.22;;;;;;;;;;5093027;28;20801;-53
2022/05/13 10:42:37;;;;;;;4.07;2.23;;;;;;;;;;5094643;28;20415;-53
2022/05/13 10:45:05;;;;;;;5.37;2.00;;;;;;;;;;5094294;28;20617;-53
2022/05/13 10:47:35;;;;;;;5.40;2.03;;;;;;;;;;5094651;28;20252;-53
2022/05/13 10:50:01;;;;;;;3.20;1.70;;;;;;;;;;5094575;28;20657;-53
2022/05/13 10:52:37;;;;;;;6.95;2.38;;;;;;;;;;5093403;28;20405;-53
2022/05/13 10:55:07;;;;;;;6.07;2.23;;;;;;;;;;5094403;28;20199;-53
2022/05/13 10:57:34;;;;;;;4.88;2.20;;;;;;;;;;5093009;28;20417;-53
2022/05/13 11:00:05;;;;;;;5.83;2.07;;;;;;;;;;5094199;28;20565;-53
2022/05/13 11:02:41;;;;;;;3.43;2.13;;;;;;;;;;5094244;28;20256;-53
2022/05/13 11:05:10;;;;;;;4.87;2.00;;;;;;;;;;5093953;28;20203;-53
2022/05/13 11:07:38;;;;;;;5.73;2.03;;;;;;;;;;5094228;28;20218;-53
2022/05/13 11:10:11;;;;;;;6.47;2.50;;;;;;;;;;5094012;28;20657;-53
2022/05/13 11:12:41;;;;;;;4.53;1.93;;;;;;;;;;5092566;28;20224;-53
2022/05/13 11:15:21;;;;;;;5.37;2.30;;;;;;;;;;5093995;28;20665;-53
2022/05/13 11:17:52;;;;;;;9.68;2.65;;;;;;;;;;5092680;28;20469;-54
2022/05/13 11:20:23;;;;;;;5.60;2.50;;;;;;;;;;5092679;28;20451;-52
2022/05/13 11:22:53;;;;;;;6.78;2.35;;;;;;;;;;5092520;28;20420;-54
2022/05/13 11:28:32;;;;;;;6.25;2.20;;;;;;;;;;5092634;28;20448;-54
2022/05/13 11:31:02;;;;;;;8.55;2.65;;;;;;;;;;5092972;28;20421;-55
2022/05/13 11:33:32;;;;;;;5.95;2.28;;;;;;;;;;5092440;28;20428;-53
2022/05/13 11:36:06;;;;;;;6.30;2.60;;;;;;;;;;5092583;28;20405;-54
2022/05/13 11:38:38;;;;;;;6.00;2.58;;;;;;;;;;5092403;28;20410;-54
2022/05/13 11:41:10;;;;;;;6.15;2.35;;;;;;;;;;5092244;28;20413;-54
2022/05/13 11:43:41;;;;;;;8.55;2.42;;;;;;;;;;5091683;28;20493;-54
2022/05/13 11:46:26;;;;;;;4.18;2.20;;;;;;;;;;5092164;28;20441;-54
2022/05/13 11:48:53;;;;;;;6.93;2.63;;;;;;;;;;5091846;28;21004;-54
2022/05/13 11:51:21;;;;;;;6.57;2.30;;;;;;;;;;5091967;28;20424;-54
2022/05/13 11:53:50;;;;;;;6.77;2.40;;;;;;;;;;5093284;28;20616;-54
2022/05/13 11:56:19;;;;;;;7.20;2.10;;;;;;;;;;5092134;28;20226;-54
2022/05/13 11:58:50;;;;;;;8.60;2.77;;;;;;;;;;5092804;28;20205;-55
2022/05/13 12:01:31;;;;;;;7.03;1.83;;;;;;;;;;5092039;28;20200;-54
2022/05/13 12:04:12;;;;;;;4.50;2.20;;;;;;;;;;5092890;28;20262;-54
2022/05/13 12:06:54;;;;;;;4.33;2.00;;;;;;;;;;5092887;28;20205;-54
2022/05/13 12:09:22;;;;;;;4.77;2.47;;;;;;;;;;5093066;28;20222;-54
2022/05/13 12:11:54;;;;;;;7.00;2.63;;;;;;;;;;5091999;28;20447;-54
2022/05/13 12:14:24;;;;;;;6.40;2.17;;;;;;;;;;5092976;28;20203;-54
2022/05/13 12:16:55;;;;;;;6.07;2.50;;;;;;;;;;5092768;28;20234;-54
2022/05/13 12:19:26;;;;;;;5.10;2.10;;;;;;;;;;5092887;28;20198;-54
2022/05/13 12:21:57;;;;;;;5.50;2.40;;;;;;;;;;5092891;28;20194;-54
2022/05/13 12:24:25;;;;;;;6.03;2.30;;;;;;;;;;5092700;28;20726;-54
2022/05/13 12:27:09;;;;;;;6.97;2.70;;;;;;;;;;5092823;28;20205;-54
2022/05/13 12:29:56;;;;;;;7.33;2.00;;;;;;;;;;5092807;28;20204;-53
2022/05/13 12:32:23;;;;;;;8.57;2.27;;;;;;;;;;5092551;28;20669;-54
2022/05/13 12:37:58;;;;;;;7.40;2.00;;;;;;;;;;5092814;28;20193;-53
2022/05/13 12:40:29;;;;;;;5.50;1.70;;;;;;;;;;5092579;28;20198;-53
2022/05/13 12:42:59;;;;;;;5.33;1.70;;;;;;;;;;5092653;28;20216;-53
2022/05/13 12:45:40;;;;;;;4.23;1.93;;;;;;;;;;5092270;28;20291;-54
2022/05/13 12:48:14;;;;;;;5.83;2.10;;;;;;;;;;5092267;28;20385;-54
2022/05/13 12:50:41;;;;;;;5.32;2.10;;;;;;;;;;5090904;28;20462;-54
2022/05/13 12:53:40;;;;;;;4.20;2.03;;;;;;;;;;5091129;28;20870;-54
2022/05/13 12:56:11;;;;;;;5.25;2.42;;;;;;;;;;5008957;28;20536;-54
2022/05/13 12:58:41;;;;;;;8.60;2.40;;;;;;;;;;5009109;28;20401;-54
2022/05/13 13:01:10;;;;;;;5.47;2.47;;;;;;;;;;5049003;28;20931;-54
2022/05/13 13:03:37;;;;;;;7.18;2.55;;;;;;;;;;5090587;28;20414;-54
2022/05/13 13:06:07;;;;;;;7.70;2.80;;;;;;;;;;5090900;28;20437;-54
2022/05/13 13:08:34;;;;;;;4.45;2.25;;;;;;;;;;5090894;28;20886;-54
2022/05/13 13:11:03;;;;;;;4.38;2.35;;;;;;;;;;5091117;28;20414;-54
2022/05/13 13:13:32;;;;;;;4.43;2.00;;;;;;;;;;5091149;28;20796;-54
2022/05/13 13:16:01;;;;;;;5.55;2.17;;;;;;;;;;5091095;28;20407;-54
2022/05/13 13:18:31;;;;;;;3.77;2.00;;;;;;;;;;5092038;28;20213;-54
2022/05/13 13:21:01;;;;;;;5.47;2.23;;;;;;;;;;5090883;28;20199;-54
2022/05/13 13:23:29;;;;;;;6.10;2.10;;;;;;;;;;5091901;28;20226;-54
2022/05/13 13:25:57;;;;;;;4.70;1.80;;;;;;;;;;5091748;28;20693;-54
2022/05/13 13:28:25;;;;;;;4.75;1.88;;;;;;;;;;5090567;28;20406;-58
2022/05/13 13:30:54;;;;;;;3.67;1.80;;;;;;;;;;5090577;28;20398;-54
2022/05/13 13:33:24;;;;;;;3.63;1.60;;;;;;;;;;5091848;28;20186;-54
2022/05/13 13:35:50;;;;;;;4.83;1.53;;;;;;;;;;5091936;28;20213;-54
2022/05/13 13:38:17;;;;;;;3.53;1.90;;;;;;;;;;5091774;28;20202;-54
2022/05/13 13:40:44;;;;;;;5.70;2.00;;;;;;;;;;5092014;28;20194;-54
2022/05/13 13:43:14;;;;;;;4.37;1.70;;;;;;;;;;5091695;28;20222;-54
2022/05/13 13:45:42;;;;;;;3.80;1.93;;;;;;;;;;5091978;28;20719;-54
2022/05/13 13:48:09;;;;;;;6.03;1.90;;;;;;;;;;5090350;28;20876;-55
2022/05/13 13:50:45;;;;;;;11.87;2.20;;;;;;;;;;5091734;28;20214;-54
2022/05/13 13:53:11;;;;;;;3.90;2.00;;;;;;;;;;5090633;28;20482;-54
2022/05/13 13:55:39;;;;;;;4.10;1.93;;;;;;;;;;5091654;28;20267;-54
2022/05/13 13:58:13;;;;;;;4.70;1.80;;;;;;;;;;5091782;28;20572;-54
2022/05/13 14:00:40;;;;;;;4.13;1.90;;;;;;;;;;5091807;28;20720;-54
2022/05/13 14:03:08;;;;;;;3.23;1.70;;;;;;;;;;5092232;28;20236;-54
2022/05/13 14:05:35;;;;;;;3.13;1.47;;;;;;;;;;5095383;28;20207;-54
2022/05/13 14:08:04;;;;;;;3.50;1.30;;;;;;;;;;5095497;28;20218;-54
2022/05/13 14:10:33;;;;;;;4.90;1.93;;;;;;;;;;5094369;28;20446;-54
2022/05/13 14:13:01;;;;;;;3.60;1.75;;;;;;;;;;5094244;28;20419;-54
2022/05/13 14:15:30;;;;;;;5.83;1.80;;;;;;;;;;5095131;28;20214;-54
2022/05/13 14:17:57;;;;;;;4.03;1.60;;;;;;;;;;5095244;28;20187;-55
2022/05/13 14:20:29;;;;;;;4.10;1.60;;;;;;;;;;5095139;28;20199;-54
2022/05/13 14:23:14;;;;;;;4.67;1.90;;;;;;;;;;5095382;28;20219;-55
2022/05/13 14:25:41;;;;;;;4.07;2.10;;;;;;;;;;5095320;28;20295;-54
2022/05/13 14:28:08;;;;;;;3.70;1.60;;;;;;;;;;5095144;28;20202;-54
2022/05/13 14:30:34;;;;;;;4.43;2.00;;;;;;;;;;5094973;28;20281;-54
2022/05/13 14:33:01;;;;;;;10.77;2.30;;;;;;;;;;5095204;28;20199;-54
2022/05/13 14:35:28;;;;;;;4.07;2.00;;;;;;;;;;5094779;28;20199;-54
2022/05/13 14:37:56;;;;;;;4.93;2.10;;;;;;;;;;5094995;28;20195;-54
2022/05/13 14:40:26;;;;;;;5.63;2.57;;;;;;;;;;5094915;28;20198;-54
2022/05/13 14:42:54;;;;;;;10.80;2.00;;;;;;;;;;5094891;28;20207;-54
2022/05/13 14:45:23;;;;;;;6.05;2.45;;;;;;;;;;5093416;28;20837;-54
2022/05/13 14:47:50;;;;;;;4.47;2.17;;;;;;;;;;5093493;28;20402;-55
2022/05/13 14:50:18;;;;;;;5.50;2.10;;;;;;;;;;5094703;28;20194;-55
2022/05/13 14:52:46;;;;;;;6.43;1.93;;;;;;;;;;5095036;28;20201;-55
2022/05/13 14:55:14;;;;;;;4.40;2.00;;;;;;;;;;5094609;28;20237;-55
2022/05/13 14:57:42;;;;;;;6.60;2.10;;;;;;;;;;5094608;28;20290;-54
2022/05/13 15:00:12;;;;;;;5.90;2.00;;;;;;;;;;5093233;28;20428;-55
2022/05/13 15:02:45;;;;;;;4.17;2.13;;;;;;;;;;5094472;28;20198;-54
2022/05/13 15:05:17;;;;;;;3.03;1.73;;;;;;;;;;5094552;28;20223;-54
2022/05/13 15:07:43;;;;;;;3.80;1.60;;;;;;;;;;5094784;28;20206;-54
2022/05/13 15:10:11;;;;;;;4.47;1.80;;;;;;;;;;5094379;28;20599;-54
2022/05/13 15:12:37;;;;;;;4.50;2.10;;;;;;;;;;5094135;28;20248;-53
2022/05/13 15:15:05;;;;;;;5.10;2.00;;;;;;;;;;5093822;28;20194;-55
2022/05/13 15:17:35;;;;;;;4.20;2.03;;;;;;;;;;5093881;28;20599;-55
2022/05/13 15:20:01;;;;;;;5.07;1.80;;;;;;;;;;5094335;28;20199;-55
2022/05/13 15:22:27;;;;;;;6.07;1.93;;;;;;;;;;5094023;28;20198;-55